createdAt,value
2023-01-07T00:02:04.276Z,5.75
2023-01-07T00:07:11.730Z,5.97
2023-01-07T00:12:17.981Z,13.13
2023-01-07T00:17:22.489Z,10.80
2023-01-07T00:22:27.041Z,7.60
2023-01-07T00:27:33.352Z,6.72
2023-01-07T00:32:52.370Z,6.57
2023-01-07T00:37:57.114Z,7.82
2023-01-07T00:43:05.207Z,6.80
2023-01-07T00:48:11.215Z,13.30
2023-01-07T00:53:15.923Z,8.80
2023-01-07T00:58:24.414Z,7.22
2023-01-07T01:03:31.780Z,8.07
2023-01-07T01:08:36.730Z,6.90
2023-01-07T01:13:43.520Z,11.15
2023-01-07T01:18:48.731Z,7.43
2023-01-07T01:23:53.289Z,12.77
2023-01-07T01:28:59.301Z,14.10
2023-01-07T01:34:04.243Z,11.02
2023-01-07T01:39:09.734Z,10.43
2023-01-07T01:44:47.439Z,10.60
2023-01-07T01:50:03.521Z,9.82
2023-01-07T01:55:13.352Z,12.05
2023-01-07T02:00:19.756Z,17.50
2023-01-07T02:05:35.091Z,8.10
2023-01-07T02:10:40.847Z,8.15
2023-01-07T02:15:57.565Z,8.35
2023-01-07T02:21:12.891Z,9.73
2023-01-07T02:26:57.615Z,7.77
2023-01-07T02:32:15.832Z,8.43
2023-01-07T02:37:26.981Z,8.10
2023-01-07T02:42:39.178Z,8.07
2023-01-07T02:47:51.125Z,8.35
2023-01-07T02:52:56.821Z,8.38
2023-01-07T02:58:30.173Z,8.35
2023-01-07T03:03:52.817Z,8.23
2023-01-07T03:09:06.077Z,9.38
2023-01-07T03:14:17.908Z,8.75
2023-01-07T03:19:31.680Z,10.13
2023-01-07T03:24:37.438Z,8.70
2023-01-07T03:29:41.930Z,7.07
2023-01-07T03:34:48.805Z,7.38
2023-01-07T03:39:54.428Z,7.45
2023-01-07T03:45:00.224Z,6.78
2023-01-07T03:50:10.320Z,6.78
2023-01-07T03:55:18.817Z,5.75
2023-01-07T04:00:25.549Z,5.18
2023-01-07T04:05:50.436Z,6.40
2023-01-07T04:10:56.083Z,6.20
2023-01-07T04:16:02.173Z,6.63
2023-01-07T04:21:08.494Z,6.47
2023-01-07T04:26:13.042Z,6.50
2023-01-07T04:36:24.704Z,6.00
2023-01-07T04:41:29.390Z,6.25
2023-01-07T04:46:34.851Z,17.58
2023-01-07T04:51:41.087Z,5.78
2023-01-07T04:56:45.857Z,5.10
2023-01-07T05:01:50.953Z,5.00
2023-01-07T05:06:56.995Z,5.57
2023-01-07T05:12:03.446Z,6.68
2023-01-07T05:17:08.551Z,10.10
2023-01-07T05:22:16.705Z,7.97
2023-01-07T05:27:21.500Z,8.95
2023-01-07T05:32:26.996Z,12.30
2023-01-07T05:37:33.164Z,7.70
2023-01-07T05:42:37.741Z,8.57
2023-01-07T05:47:43.965Z,20.10
2023-01-07T05:57:54.122Z,36.40
2023-01-07T06:02:58.604Z,13.65
2023-01-07T06:08:04.797Z,8.70
2023-01-07T06:13:09.304Z,8.27
2023-01-07T06:18:13.885Z,7.65
2023-01-07T06:23:20.108Z,10.95
2023-01-07T06:28:24.945Z,10.38
2023-01-07T06:33:33.385Z,19.67
2023-01-07T06:38:41.746Z,13.65
2023-01-07T06:43:46.223Z,13.40
2023-01-07T06:48:51.402Z,8.43
2023-01-07T06:54:00.805Z,8.10
2023-01-07T06:59:05.508Z,7.85
2023-01-07T07:04:12.409Z,39.25
2023-01-07T07:09:18.531Z,48.13
2023-01-07T07:14:23.002Z,44.05
2023-01-07T07:19:27.503Z,12.00
2023-01-07T07:24:34.983Z,15.90
2023-01-07T07:29:39.551Z,29.38
2023-01-07T07:34:43.897Z,42.38
2023-01-07T07:39:49.716Z,12.65
2023-01-07T07:44:54.215Z,23.73
2023-01-07T07:49:58.740Z,21.88
2023-01-07T07:55:20.478Z,49.95
2023-01-07T08:00:29.392Z,17.92
2023-01-07T08:05:34.695Z,15.00
2023-01-07T08:10:41.391Z,19.98
2023-01-07T08:15:45.885Z,30.08
2023-01-07T08:20:52.384Z,37.42
2023-01-07T08:26:01.124Z,16.38
2023-01-07T08:31:07.345Z,22.67
2023-01-07T08:36:22.573Z,28.88
2023-01-07T08:46:33.504Z,18.52
2023-01-07T08:51:38.193Z,19.35
2023-01-07T08:56:44.222Z,14.95
2023-01-07T09:01:48.788Z,16.77
2023-01-07T09:06:53.545Z,17.80
2023-01-07T09:11:59.357Z,20.13
2023-01-07T09:22:07.816Z,16.92
2023-01-07T09:27:13.572Z,13.85
2023-01-07T09:32:17.796Z,13.35
2023-01-07T09:37:22.884Z,12.43
2023-01-07T09:42:38.771Z,10.90
2023-01-07T09:47:46.226Z,9.40
2023-01-07T09:52:54.409Z,11.30
2023-01-07T09:58:00.701Z,18.85
2023-01-07T10:03:24.736Z,23.77
2023-01-07T10:08:39.861Z,21.13
2023-01-07T10:13:59.288Z,22.75
2023-01-07T10:19:09.529Z,19.80
2023-01-07T10:24:22.025Z,9.65
2023-01-07T10:29:33.767Z,10.20
2023-01-07T10:34:45.176Z,8.63
2023-01-07T10:39:57.878Z,11.55
2023-01-07T10:45:31.890Z,8.32
2023-01-07T10:50:53.455Z,36.95
2023-01-07T10:56:08.948Z,11.35
2023-01-07T11:01:22.951Z,22.85
2023-01-07T11:06:40.280Z,48.65
2023-01-07T11:11:47.266Z,16.75
2023-01-07T11:16:58.416Z,15.15
2023-01-07T11:22:03.255Z,15.10
2023-01-07T11:27:15.643Z,16.73
2023-01-07T11:32:26.236Z,17.35
2023-01-07T11:37:39.549Z,18.42
2023-01-07T11:42:49.985Z,15.27
2023-01-07T11:48:01.688Z,17.40
2023-01-07T11:53:23.519Z,16.80
2023-01-07T11:58:31.029Z,19.95
2023-01-07T12:03:38.289Z,17.55
2023-01-07T12:08:50.996Z,16.70
2023-01-07T12:13:55.900Z,17.35
2023-01-07T12:19:14.908Z,15.38
2023-01-07T12:25:00.284Z,14.77
2023-01-07T12:30:23.770Z,14.43
2023-01-07T12:35:32.578Z,13.93
2023-01-07T12:40:42.467Z,8.98
2023-01-07T12:45:52.677Z,8.80
2023-01-07T12:51:00.766Z,11.23
2023-01-07T12:56:12.384Z,10.88
2023-01-07T13:01:25.490Z,10.27
2023-01-07T13:06:42.936Z,12.07
2023-01-07T13:12:40.582Z,11.07
2023-01-07T13:17:35.931Z,11.02
2023-01-07T13:22:46.474Z,11.40
2023-01-07T13:28:20.658Z,9.45
2023-01-07T13:33:35.147Z,9.40
2023-01-07T13:39:14.018Z,9.75
2023-01-07T13:44:49.771Z,11.20
2023-01-07T13:50:00.522Z,13.13
2023-01-07T13:55:32.578Z,12.63
2023-01-07T14:01:05.208Z,13.98
2023-01-07T14:06:44.125Z,12.13
2023-01-07T14:12:15.802Z,12.18
2023-01-07T14:17:32.507Z,14.05
2023-01-07T14:28:20.818Z,12.70
2023-01-07T14:33:28.249Z,11.30
2023-01-07T14:39:00.992Z,12.20
2023-01-07T14:44:37.110Z,12.07
2023-01-07T14:50:09.916Z,10.20
2023-01-07T14:55:40.117Z,11.13
2023-01-07T15:01:22.083Z,11.77
2023-01-07T15:06:30.268Z,10.63
2023-01-07T15:11:53.603Z,11.77
2023-01-07T15:16:58.702Z,12.52
2023-01-07T15:22:13.464Z,16.88
2023-01-07T15:27:29.790Z,14.02
2023-01-07T15:32:45.571Z,15.07
2023-01-07T15:37:52.883Z,14.82
2023-01-07T15:42:59.449Z,15.98
2023-01-07T15:48:09.189Z,17.45
2023-01-07T15:53:23.634Z,17.70
2023-01-07T15:58:36.693Z,16.88
2023-01-07T16:03:44.705Z,22.77
2023-01-07T16:08:51.926Z,22.70
2023-01-07T16:13:59.890Z,30.35
2023-01-07T16:19:08.644Z,31.20
2023-01-07T16:24:17.653Z,30.45
2023-01-07T16:29:27.500Z,27.38
2023-01-07T16:34:59.927Z,24.30
2023-01-07T16:40:18.102Z,21.83
2023-01-07T16:45:29.072Z,23.50
2023-01-07T16:50:40.495Z,21.00
2023-01-07T16:55:51.632Z,21.92
2023-01-07T17:01:01.829Z,22.85
2023-01-07T17:06:08.620Z,22.42
2023-01-07T17:11:22.845Z,25.02
2023-01-07T17:16:30.494Z,25.90
2023-01-07T17:21:43.025Z,23.15
2023-01-07T17:26:51.860Z,24.35
2023-01-07T17:31:56.937Z,25.85
2023-01-07T17:37:01.903Z,28.55
2023-01-07T17:42:39.894Z,26.65
2023-01-07T17:48:03.246Z,25.95
2023-01-07T17:53:14.909Z,26.30
2023-01-07T17:58:27.765Z,24.58
2023-01-07T18:03:40.053Z,27.27
2023-01-07T18:08:50.714Z,22.73
2023-01-07T18:14:11.109Z,23.70
2023-01-07T18:19:36.244Z,23.93
2023-01-07T18:25:19.001Z,23.17
2023-01-07T18:30:38.554Z,21.33
2023-01-07T18:35:43.631Z,22.73
2023-01-07T18:40:57.713Z,22.48
2023-01-07T18:46:19.970Z,21.65
2023-01-07T18:51:34.829Z,21.73
2023-01-07T18:57:05.236Z,20.27
2023-01-07T19:02:22.659Z,21.67
2023-01-07T19:08:03.048Z,20.25
2023-01-07T19:13:28.934Z,20.60
2023-01-07T19:19:07.015Z,18.45
2023-01-07T19:24:34.813Z,18.15
2023-01-07T19:29:49.967Z,17.52
2023-01-07T19:35:14.869Z,20.83
2023-01-07T19:45:24.435Z,22.02
2023-01-07T19:50:30.328Z,19.80
2023-01-07T20:00:39.051Z,25.98
2023-01-07T20:05:45.250Z,19.30
2023-01-07T20:10:57.588Z,22.80
2023-01-07T20:16:06.237Z,24.48
2023-01-07T20:21:12.889Z,19.33
2023-01-07T20:26:19.144Z,18.80
2023-01-07T20:31:27.349Z,16.63
2023-01-07T20:36:34.058Z,17.38
2023-01-07T20:41:39.209Z,15.80
2023-01-07T20:46:44.075Z,16.67
2023-01-07T20:51:50.097Z,15.43
2023-01-07T20:56:54.567Z,17.90
2023-01-07T21:01:59.182Z,18.08
2023-01-07T21:07:05.349Z,19.52
2023-01-07T21:12:10.030Z,19.38
2023-01-07T21:17:16.136Z,18.88
2023-01-07T21:22:21.997Z,17.80
2023-01-07T21:27:26.640Z,17.83
2023-01-07T21:32:31.123Z,17.23
2023-01-07T21:37:37.545Z,17.17
2023-01-07T21:42:41.931Z,17.83
2023-01-07T21:47:46.424Z,17.52
2023-01-07T21:52:53.431Z,15.70
2023-01-07T21:57:58.124Z,16.20
2023-01-07T22:03:02.654Z,17.10
2023-01-07T22:08:10.577Z,14.77
2023-01-07T22:13:15.065Z,14.52
2023-01-07T22:18:20.702Z,13.50
2023-01-07T22:23:26.999Z,13.10
2023-01-07T22:28:33.672Z,13.50
2023-01-07T22:33:38.154Z,10.73
2023-01-07T22:38:44.381Z,9.75
2023-01-07T22:44:55.037Z,9.23
2023-01-07T22:50:02.946Z,8.77
2023-01-07T22:55:09.862Z,9.60
2023-01-07T23:00:18.648Z,7.82
2023-01-07T23:05:25.752Z,10.27
2023-01-07T23:10:32.347Z,9.48
2023-01-07T23:15:38.307Z,9.00
2023-01-07T23:20:44.216Z,8.70
2023-01-07T23:25:52.109Z,7.35
2023-01-07T23:30:56.517Z,9.23
2023-01-07T23:36:05.050Z,8.63
2023-01-07T23:41:12.749Z,7.15
2023-01-07T23:46:18.228Z,7.63
2023-01-07T23:56:30.162Z,8.30
